Time;durP1;ratioP1;P1;durP2;ratioP2;P2;SDS_P1;SDS_P2;PMS_P1;PMS_P2;Temp;Humidity;BMP_temperature;BMP_pressure;BME280_temperature;BME280_humidity;BME280_pressure;Samples;Min_cycle;Max_cycle;Signal;HPM_P1;HPM_P2
2021/03/31 00:01:24;;;;;;;25.58;13.75;;;7.20;78.00;;;;;;5004774;28;20061;-70
2021/03/31 00:03:50;;;;;;;21.30;12.80;;;7.10;77.90;;;;;;5005462;28;20029;-69
2021/03/31 00:06:15;;;;;;;23.48;13.43;;;7.10;77.60;;;;;;5006474;28;20029;-68
2021/03/31 00:08:42;;;;;;;22.30;12.70;;;7.20;77.50;;;;;;5004584;28;20058;-69
2021/03/31 00:11:09;;;;;;;21.80;12.60;;;7.20;77.30;;;;;;5005360;28;20041;-69
2021/03/31 00:13:34;;;;;;;23.45;13.02;;;7.20;78.20;;;;;;5004997;28;20050;-68
2021/03/31 00:16:00;;;;;;;23.50;13.48;;;7.10;78.20;;;;;;5005295;28;20062;-69
2021/03/31 00:18:26;;;;;;;21.63;13.25;;;7.10;77.90;;;;;;4997949;28;20022;-68
2021/03/31 00:20:52;;;;;;;23.15;13.20;;;7.10;78.10;;;;;;5003589;28;20100;-67
2021/03/31 00:23:22;;;;;;;23.65;13.73;;;7.00;78.40;;;;;;5007308;28;20527;-69
2021/03/31 00:25:48;;;;;;;22.85;12.43;;;7.00;78.80;;;;;;5004894;28;20036;-68
2021/03/31 00:28:13;;;;;;;20.63;12.25;;;6.90;79.70;;;;;;5006190;28;20573;-68
2021/03/31 00:30:40;;;;;;;25.65;13.23;;;6.80;79.70;;;;;;5006109;28;20336;-68
2021/03/31 00:33:07;;;;;;;21.63;13.25;;;6.90;80.00;;;;;;5003864;28;20154;-69
2021/03/31 00:35:32;;;;;;;24.13;13.32;;;6.90;79.00;;;;;;5007355;28;20021;-69
2021/03/31 00:37:58;;;;;;;23.15;12.27;;;6.70;79.50;;;;;;5003757;28;20514;-68
2021/03/31 00:40:27;;;;;;;22.73;13.00;;;6.70;79.90;;;;;;5005982;28;20434;-69
2021/03/31 00:42:53;;;;;;;25.63;13.00;;;6.60;80.10;;;;;;5007398;28;20026;-68
2021/03/31 00:45:19;;;;;;;24.63;12.73;;;6.60;80.00;;;;;;5010031;28;20482;-69
2021/03/31 00:47:44;;;;;;;22.15;12.65;;;6.60;80.00;;;;;;5007771;28;20037;-69
2021/03/31 00:50:19;;;;;;;23.90;12.27;;;6.70;80.10;;;;;;5009698;28;20026;-69
2021/03/31 00:52:46;;;;;;;21.42;12.10;;;6.60;79.80;;;;;;5009845;28;20068;-69
2021/03/31 00:55:15;;;;;;;24.02;13.85;;;6.50;80.00;;;;;;5011872;28;20029;-68
2021/03/31 00:57:41;;;;;;;20.88;12.32;;;6.50;80.70;;;;;;5007355;28;20028;-68
2021/03/31 01:00:09;;;;;;;23.13;13.80;;;6.50;80.50;;;;;;5010092;28;20030;-69
2021/03/31 01:02:38;;;;;;;23.08;12.80;;;6.30;81.00;;;;;;5008621;28;20045;-69
2021/03/31 01:05:09;;;;;;;23.17;13.05;;;6.30;81.50;;;;;;5013060;28;20026;-68
2021/03/31 01:07:36;;;;;;;22.25;12.82;;;6.20;81.60;;;;;;5010347;28;20033;-69
2021/03/31 01:10:03;;;;;;;20.65;13.18;;;6.10;81.60;;;;;;5008311;28;20049;-68
2021/03/31 01:12:37;;;;;;;26.55;14.40;;;6.10;82.10;;;;;;5002302;28;20513;-68
2021/03/31 01:15:05;;;;;;;24.40;13.32;;;6.10;82.30;;;;;;5010883;28;20113;-69
2021/03/31 01:17:39;;;;;;;23.67;13.50;;;6.00;81.50;;;;;;5011735;28;20037;-68
2021/03/31 01:20:20;;;;;;;19.95;12.75;;;6.00;82.40;;;;;;5003592;28;20033;-69
2021/03/31 01:23:20;;;;;;;24.98;13.80;;;6.00;82.90;;;;;;5007299;28;20522;-69
2021/03/31 01:26:04;;;;;;;26.80;13.38;;;6.00;82.40;;;;;;5012898;28;20041;-69
2021/03/31 01:28:51;;;;;;;23.30;12.65;;;5.90;82.30;;;;;;5010745;28;20045;-69
2021/03/31 01:31:41;;;;;;;21.42;12.90;;;5.80;82.20;;;;;;5014182;28;20025;-69
2021/03/31 01:34:44;;;;;;;24.17;13.85;;;5.80;82.60;;;;;;5010850;28;20176;-69
2021/03/31 01:37:20;;;;;;;22.65;13.25;;;5.70;83.00;;;;;;5010355;28;20026;-69
2021/03/31 01:39:47;;;;;;;22.42;13.45;;;5.90;83.20;;;;;;5013527;28;20037;-68
2021/03/31 01:42:15;;;;;;;21.42;12.75;;;5.90;82.20;;;;;;5011783;28;20026;-70
2021/03/31 01:44:43;;;;;;;22.05;13.40;;;6.00;83.10;;;;;;5009174;28;20030;-69
2021/03/31 01:47:12;;;;;;;24.92;13.82;;;5.80;82.60;;;;;;5012759;28;20272;-70
2021/03/31 01:49:38;;;;;;;23.35;14.18;;;5.70;82.40;;;;;;5012367;28;20029;-68
2021/03/31 01:52:06;;;;;;;21.63;13.07;;;5.70;82.50;;;;;;5009966;28;20441;-68
2021/03/31 01:54:33;;;;;;;22.13;13.77;;;5.60;82.50;;;;;;5012328;28;20052;-69
2021/03/31 01:57:00;;;;;;;25.85;14.30;;;5.60;82.50;;;;;;5011481;28;20161;-69
2021/03/31 01:59:26;;;;;;;25.20;14.45;;;5.60;82.50;;;;;;5008764;28;20057;-68
2021/03/31 02:01:54;;;;;;;24.38;14.15;;;5.50;82.80;;;;;;5007776;28;20148;-69
2021/03/31 02:04:21;;;;;;;26.30;14.18;;;5.50;82.90;;;;;;5014429;28;20026;-68
2021/03/31 02:06:48;;;;;;;31.45;13.75;;;5.50;83.00;;;;;;5012706;28;20036;-69
2021/03/31 02:09:14;;;;;;;22.30;14.35;;;5.40;82.80;;;;;;5009797;28;20482;-69
2021/03/31 02:11:43;;;;;;;25.08;14.63;;;5.30;83.00;;;;;;5011169;28;20418;-68
2021/03/31 02:14:12;;;;;;;26.23;15.55;;;5.30;83.20;;;;;;5007820;28;20026;-68
2021/03/31 02:16:38;;;;;;;24.67;14.90;;;5.20;83.20;;;;;;5011942;28;20049;-69
2021/03/31 02:19:04;;;;;;;21.75;14.73;;;5.30;83.20;;;;;;5009179;28;20033;-68
2021/03/31 02:21:32;;;;;;;26.17;14.18;;;5.20;83.50;;;;;;5011372;28;20439;-70
2021/03/31 02:23:57;;;;;;;27.27;15.00;;;5.20;83.60;;;;;;5010951;28;20081;-69
2021/03/31 02:26:25;;;;;;;25.00;14.90;;;5.20;84.00;;;;;;5010517;28;20053;-69
2021/03/31 02:28:52;;;;;;;25.85;14.50;;;5.20;83.50;;;;;;5009741;28;20034;-69
2021/03/31 02:31:19;;;;;;;30.05;13.82;;;5.10;83.50;;;;;;5010446;28;20086;-68
2021/03/31 02:33:46;;;;;;;26.17;13.88;;;5.10;83.30;;;;;;5009669;28;20410;-68
2021/03/31 02:36:15;;;;;;;25.63;15.00;;;5.00;83.30;;;;;;5012539;28;20041;-69
2021/03/31 02:38:44;;;;;;;25.15;14.18;;;4.90;83.90;;;;;;5017724;28;20030;-68
2021/03/31 02:41:11;;;;;;;21.75;13.35;;;4.80;83.90;;;;;;5013298;28;20124;-69
2021/03/31 02:43:42;;;;;;;23.70;14.38;;;4.70;84.60;;;;;;5013681;28;20026;-68
2021/03/31 02:46:10;;;;;;;28.07;14.57;;;4.60;85.00;;;;;;5017071;28;20036;-68
2021/03/31 02:48:37;;;;;;;24.42;14.00;;;4.60;85.20;;;;;;5010577;28;20030;-67
2021/03/31 02:51:04;;;;;;;23.58;14.00;;;4.60;85.40;;;;;;5007911;28;20029;-68
2021/03/31 02:53:30;;;;;;;24.80;14.68;;;4.60;85.10;;;;;;5009295;28;20018;-69
2021/03/31 02:55:56;;;;;;;26.98;14.95;;;4.60;85.00;;;;;;5010270;28;20104;-68
2021/03/31 02:58:23;;;;;;;22.50;14.25;;;4.60;85.00;;;;;;5009319;28;20030;-68
2021/03/31 03:00:48;;;;;;;24.20;14.38;;;4.50;85.30;;;;;;5003524;28;21023;-68
2021/03/31 03:03:14;;;;;;;27.33;15.43;;;4.50;85.40;;;;;;5007607;28;20030;-68
2021/03/31 03:05:40;;;;;;;26.65;15.60;;;4.50;85.70;;;;;;5010468;28;20030;-68
2021/03/31 03:08:06;;;;;;;25.52;15.07;;;4.60;84.90;;;;;;5009903;28;20033;-68
2021/03/31 03:10:32;;;;;;;23.95;14.48;;;4.60;84.70;;;;;;5012389;28;20033;-69
2021/03/31 03:12:59;;;;;;;24.00;14.23;;;4.60;84.90;;;;;;5010798;28;20538;-69
2021/03/31 03:15:27;;;;;;;27.63;15.50;;;4.60;85.20;;;;;;5006854;28;20018;-68
2021/03/31 03:17:53;;;;;;;30.30;15.32;;;4.60;84.70;;;;;;5006448;28;20523;-68
2021/03/31 03:20:19;;;;;;;28.75;15.65;;;4.60;84.60;;;;;;5009880;28;20046;-68
2021/03/31 03:22:47;;;;;;;26.33;15.80;;;4.60;83.90;;;;;;5008951;28;20036;-68
2021/03/31 03:25:15;;;;;;;24.13;14.93;;;4.60;83.70;;;;;;5009625;28;20054;-68
2021/03/31 03:27:43;;;;;;;24.42;15.02;;;4.60;83.70;;;;;;5008653;28;20098;-68
2021/03/31 03:30:11;;;;;;;22.80;14.73;;;4.50;84.30;;;;;;5007374;28;20235;-68
2021/03/31 03:32:40;;;;;;;23.95;14.07;;;4.60;83.80;;;;;;5008987;28;20036;-68
2021/03/31 03:35:12;;;;;;;26.98;15.40;;;4.50;83.80;;;;;;5007708;28;20026;-68
2021/03/31 03:37:38;;;;;;;32.33;16.23;;;4.50;84.00;;;;;;5008241;28;20034;-68
2021/03/31 03:40:04;;;;;;;28.02;16.58;;;4.40;84.10;;;;;;5009647;28;20364;-68
2021/03/31 03:42:30;;;;;;;32.58;16.70;;;4.40;84.70;;;;;;5010413;28;20453;-68
2021/03/31 03:45:00;;;;;;;28.58;16.52;;;4.40;84.50;;;;;;5007951;28;20337;-69
2021/03/31 03:47:26;;;;;;;27.55;15.65;;;4.50;84.60;;;;;;5015009;28;20160;-70
2021/03/31 03:49:52;;;;;;;30.20;16.58;;;4.40;84.90;;;;;;5005377;28;20042;-67
2021/03/31 03:52:18;;;;;;;27.50;16.58;;;4.60;84.20;;;;;;5009886;28;20033;-68
2021/03/31 03:54:50;;;;;;;25.50;15.27;;;4.60;83.70;;;;;;5008732;28;20033;-68
2021/03/31 03:57:27;;;;;;;29.70;15.70;;;4.70;83.20;;;;;;5009729;28;20075;-68
2021/03/31 03:59:56;;;;;;;24.25;14.88;;;4.70;82.90;;;;;;5007127;28;20029;-68
2021/03/31 04:02:23;;;;;;;27.92;14.98;;;4.60;82.80;;;;;;5007541;28;20601;-68
2021/03/31 04:04:49;;;;;;;28.90;15.20;;;4.60;83.20;;;;;;5008850;28;20037;-68
2021/03/31 04:07:15;;;;;;;27.30;15.68;;;4.60;83.50;;;;;;5006020;28;20065;-69
2021/03/31 04:09:44;;;;;;;24.30;15.45;;;4.60;83.50;;;;;;4997843;28;20475;-68
2021/03/31 04:12:11;;;;;;;28.40;16.15;;;4.60;83.80;;;;;;5009493;28;20033;-70
2021/03/31 04:14:40;;;;;;;28.20;15.93;;;4.70;83.20;;;;;;5008783;28;20025;-68
2021/03/31 04:17:08;;;;;;;26.98;15.52;;;4.60;83.20;;;;;;5008655;28;20026;-68
2021/03/31 04:19:36;;;;;;;30.17;15.93;;;4.60;83.20;;;;;;5004273;28;20125;-68
2021/03/31 04:22:02;;;;;;;26.38;15.25;;;4.60;82.40;;;;;;5008923;28;20037;-67
2021/03/31 04:24:27;;;;;;;23.17;14.43;;;4.70;81.60;;;;;;5008502;28;20284;-67
2021/03/31 04:26:55;;;;;;;25.67;16.25;;;4.90;80.60;;;;;;5007900;28;20359;-67
2021/03/31 04:29:22;;;;;;;26.27;15.80;;;5.00;80.70;;;;;;5005797;28;20402;-68
2021/03/31 04:31:48;;;;;;;26.77;15.50;;;5.10;79.50;;;;;;5006006;28;20029;-68
2021/03/31 04:34:14;;;;;;;23.10;14.75;;;5.40;78.40;;;;;;5007310;28;20022;-67
2021/03/31 04:36:41;;;;;;;21.60;14.18;;;5.50;77.70;;;;;;5004959;28;20026;-67
2021/03/31 04:39:07;;;;;;;28.27;14.55;;;5.60;77.80;;;;;;5011948;28;20026;-68
2021/03/31 04:41:34;;;;;;;27.13;14.88;;;5.60;77.50;;;;;;5007409;28;20517;-67
2021/03/31 04:44:00;;;;;;;22.35;13.40;;;5.50;77.30;;;;;;5006779;28;20037;-67
2021/03/31 04:46:25;;;;;;;25.13;13.75;;;5.50;77.10;;;;;;5007345;28;20026;-68
2021/03/31 04:48:51;;;;;;;24.50;14.77;;;5.60;77.30;;;;;;5003767;28;20041;-67
2021/03/31 04:51:16;;;;;;;26.05;14.10;;;5.50;77.50;;;;;;5003772;28;20026;-68
2021/03/31 04:53:42;;;;;;;26.60;13.77;;;5.60;77.00;;;;;;4999402;28;20041;-66
2021/03/31 04:56:08;;;;;;;25.58;13.68;;;5.60;76.30;;;;;;5010830;28;20038;-67
2021/03/31 04:58:34;;;;;;;22.75;13.05;;;5.50;76.20;;;;;;4995338;28;20049;-70
2021/03/31 05:01:00;;;;;;;22.13;13.02;;;5.40;76.20;;;;;;5002992;28;20030;-68
2021/03/31 05:03:27;;;;;;;24.83;14.23;;;5.40;77.20;;;;;;5007329;28;20088;-67
2021/03/31 05:05:53;;;;;;;23.48;13.43;;;5.40;77.10;;;;;;5005641;28;20581;-67
2021/03/31 05:08:18;;;;;;;23.80;13.02;;;5.40;77.20;;;;;;5005983;28;20029;-68
2021/03/31 05:10:45;;;;;;;21.75;13.18;;;5.60;76.40;;;;;;5007609;28;20505;-68
2021/03/31 05:13:10;;;;;;;21.75;12.57;;;5.60;75.30;;;;;;5004937;28;20029;-68
2021/03/31 05:15:36;;;;;;;17.70;12.15;;;5.70;74.90;;;;;;5001992;28;20500;-68
2021/03/31 05:18:02;;;;;;;18.58;11.85;;;6.00;73.40;;;;;;5000884;28;20232;-69
2021/03/31 05:20:27;;;;;;;20.77;12.40;;;6.10;72.20;;;;;;5006922;28;20088;-68
2021/03/31 05:22:53;;;;;;;25.00;12.98;;;6.20;72.20;;;;;;5007034;28;20030;-68
2021/03/31 05:25:19;;;;;;;23.42;12.13;;;6.40;71.00;;;;;;5006464;28;20038;-68
2021/03/31 05:27:44;;;;;;;20.55;11.00;;;6.50;69.80;;;;;;5006305;28;20061;-68
2021/03/31 05:30:11;;;;;;;20.85;11.57;;;6.70;68.50;;;;;;5007712;28;20033;-68
2021/03/31 05:32:37;;;;;;;21.02;11.77;;;6.70;68.90;;;;;;5010717;28;20104;-68
2021/03/31 05:35:07;;;;;;;19.60;11.43;;;7.00;66.00;;;;;;5005981;28;20307;-68
2021/03/31 05:37:33;;;;;;;17.75;11.20;;;6.90;68.00;;;;;;5008366;28;20018;-69
2021/03/31 05:40:00;;;;;;;20.90;12.20;;;6.90;68.10;;;;;;5006479;28;20030;-68
2021/03/31 05:42:26;;;;;;;21.58;11.43;;;7.10;66.10;;;;;;5007354;28;20498;-71
2021/03/31 05:44:53;;;;;;;21.05;12.40;;;7.10;66.60;;;;;;5006593;28;20105;-67
2021/03/31 05:47:33;;;;;;;21.15;11.38;;;7.10;66.30;;;;;;5004699;28;20030;-68
2021/03/31 05:49:59;;;;;;;23.52;11.30;;;7.20;66.00;;;;;;5007372;28;20414;-68
2021/03/31 05:52:25;;;;;;;20.92;11.45;;;7.20;65.90;;;;;;5009129;28;20026;-68
2021/03/31 05:54:51;;;;;;;20.10;11.27;;;7.40;64.90;;;;;;5006354;28;20022;-67
2021/03/31 05:57:20;;;;;;;23.38;12.70;;;7.50;64.30;;;;;;5009340;28;20502;-68
2021/03/31 05:59:46;;;;;;;22.30;12.50;;;7.60;63.80;;;;;;5006447;28;20116;-67
2021/03/31 06:02:14;;;;;;;18.83;11.60;;;7.80;62.10;;;;;;5010683;28;20442;-68
2021/03/31 06:04:44;;;;;;;16.50;11.20;;;8.00;61.20;;;;;;5002866;28;20498;-67
2021/03/31 06:07:11;;;;;;;24.15;11.20;;;8.10;61.90;;;;;;5008098;28;20030;-68
2021/03/31 06:10:06;;;;;;;21.40;11.63;;;8.20;60.30;;;;;;5002036;28;20283;-68
2021/03/31 06:12:33;;;;;;;19.33;11.15;;;8.30;60.50;;;;;;5008978;28;20229;-68
2021/03/31 06:15:24;;;;;;;21.52;11.65;;;8.50;59.70;;;;;;5002869;28;20378;-68
2021/03/31 06:17:53;;;;;;;18.63;10.65;;;8.50;59.30;;;;;;5003882;28;20099;-67
2021/03/31 06:20:42;;;;;;;19.67;11.55;;;8.60;59.00;;;;;;5007980;28;20065;-67
2021/03/31 06:23:17;;;;;;;19.70;10.40;;;8.80;58.60;;;;;;5007958;28;20036;-67
2021/03/31 06:25:54;;;;;;;22.25;10.70;;;9.00;57.30;;;;;;5006026;28;20036;-66
2021/03/31 06:28:34;;;;;;;21.33;11.00;;;9.20;57.30;;;;;;5004793;28;20101;-67
2021/03/31 06:31:12;;;;;;;17.10;10.52;;;9.50;56.40;;;;;;5008608;28;20022;-67
2021/03/31 06:33:42;;;;;;;18.75;10.82;;;9.80;55.20;;;;;;5006258;28;20375;-67
2021/03/31 06:36:10;;;;;;;18.88;10.55;;;10.00;55.00;;;;;;5010367;28;20025;-68
2021/03/31 06:38:38;;;;;;;16.17;9.40;;;10.20;52.00;;;;;;5008335;28;20416;-67
2021/03/31 06:41:12;;;;;;;18.65;11.23;;;10.40;50.80;;;;;;5006957;28;20025;-68
2021/03/31 06:43:49;;;;;;;19.40;11.20;;;10.70;51.20;;;;;;5007663;28;20038;-68
2021/03/31 06:46:30;;;;;;;18.05;10.73;;;10.80;52.40;;;;;;5007040;28;20021;-68
2021/03/31 06:48:56;;;;;;;21.90;11.07;;;11.00;51.30;;;;;;5005212;28;20533;-68
2021/03/31 06:51:24;;;;;;;18.25;10.32;;;11.20;51.40;;;;;;5001728;28;20038;-68
2021/03/31 06:53:49;;;;;;;18.55;10.25;;;11.40;49.40;;;;;;5003553;28;20249;-68
2021/03/31 06:56:15;;;;;;;19.73;10.45;;;11.70;49.40;;;;;;5000183;28;20522;-68
2021/03/31 06:58:42;;;;;;;21.00;9.93;;;11.80;48.60;;;;;;4999330;28;20411;-68
2021/03/31 07:01:30;;;;;;;21.02;10.25;;;11.90;47.50;;;;;;5006794;28;20029;-69
2021/03/31 07:03:56;;;;;;;19.13;10.43;;;12.00;47.90;;;;;;5006621;28;20573;-67
2021/03/31 07:06:22;;;;;;;20.02;10.90;;;12.10;47.60;;;;;;5007753;28;20438;-68
2021/03/31 07:08:48;;;;;;;20.65;10.48;;;12.30;49.50;;;;;;5006503;28;20269;-68
2021/03/31 07:11:40;;;;;;;18.77;10.27;;;12.50;48.30;;;;;;5012557;28;20506;-68
2021/03/31 07:14:07;;;;;;;18.73;9.93;;;12.60;47.50;;;;;;4992007;28;20024;-68
2021/03/31 07:16:33;;;;;;;17.45;9.63;;;12.60;47.30;;;;;;5006986;28;20018;-68
2021/03/31 07:19:00;;;;;;;18.25;10.50;;;12.70;46.80;;;;;;5005335;28;20030;-68
2021/03/31 07:21:26;;;;;;;17.65;9.30;;;12.60;47.40;;;;;;5004604;28;20064;-68
2021/03/31 07:23:52;;;;;;;17.90;10.05;;;12.70;48.10;;;;;;5007421;28;20034;-69
2021/03/31 07:26:22;;;;;;;19.45;9.75;;;12.80;48.20;;;;;;5008243;28;20033;-69
2021/03/31 07:28:51;;;;;;;19.85;9.50;;;12.80;46.70;;;;;;5007140;28;20034;-68
2021/03/31 07:31:26;;;;;;;16.67;9.73;;;13.00;46.40;;;;;;5008079;28;20052;-68
2021/03/31 07:34:01;;;;;;;18.25;9.82;;;13.10;46.40;;;;;;4997066;28;20487;-68
2021/03/31 07:36:28;;;;;;;15.18;9.23;;;13.30;47.70;;;;;;5007291;28;20398;-69
2021/03/31 07:38:54;;;;;;;15.48;9.38;;;13.50;46.80;;;;;;5005405;28;20106;-68
2021/03/31 07:41:22;;;;;;;16.00;9.02;;;13.60;47.00;;;;;;5004279;28;20669;-68
2021/03/31 07:43:49;;;;;;;21.45;9.88;;;13.70;46.00;;;;;;5006092;28;20030;-68
2021/03/31 07:46:25;;;;;;;18.95;8.82;;;13.90;47.50;;;;;;5005674;28;20501;-69
2021/03/31 07:48:52;;;;;;;15.95;8.55;;;14.00;46.10;;;;;;5006862;28;20068;-68
2021/03/31 07:51:26;;;;;;;16.50;8.95;;;14.20;45.10;;;;;;5006497;28;20026;-69
2021/03/31 07:53:54;;;;;;;16.63;8.60;;;14.40;45.80;;;;;;5003196;28;20394;-68
2021/03/31 07:56:24;;;;;;;16.60;8.50;;;14.60;45.30;;;;;;5002351;28;20044;-68
2021/03/31 07:59:01;;;;;;;18.35;9.45;;;14.80;44.40;;;;;;5006358;28;20394;-68
2021/03/31 08:01:47;;;;;;;20.02;9.30;;;14.90;43.60;;;;;;5005078;28;20026;-68
2021/03/31 08:04:15;;;;;;;17.17;8.70;;;15.20;42.80;;;;;;5018737;28;20096;-69
2021/03/31 08:06:43;;;;;;;17.63;9.65;;;15.30;41.00;;;;;;5005832;28;20025;-68
2021/03/31 08:09:11;;;;;;;18.83;9.52;;;15.50;43.40;;;;;;5005651;28;20068;-68
2021/03/31 08:11:39;;;;;;;18.83;9.23;;;15.80;41.60;;;;;;5006966;28;20578;-69
2021/03/31 08:14:15;;;;;;;17.23;8.73;;;16.00;42.10;;;;;;5006997;28;20105;-68
2021/03/31 08:16:47;;;;;;;18.23;8.23;;;16.30;42.60;;;;;;5006621;28;20041;-68
2021/03/31 08:19:24;;;;;;;14.60;8.60;;;16.50;40.20;;;;;;5000311;28;20030;-69
2021/03/31 08:21:52;;;;;;;15.85;8.68;;;16.60;42.50;;;;;;5006830;28;20053;-68
2021/03/31 08:24:37;;;;;;;18.02;9.38;;;17.00;42.00;;;;;;5002710;28;20034;-68
2021/03/31 08:27:04;;;;;;;17.05;8.98;;;17.20;42.10;;;;;;4996734;28;20057;-68
2021/03/31 08:29:33;;;;;;;17.40;8.98;;;17.20;40.00;;;;;;5003497;28;20029;-68
2021/03/31 08:32:01;;;;;;;14.02;8.57;;;17.50;37.20;;;;;;5006876;28;20030;-69
2021/03/31 08:34:31;;;;;;;18.20;8.52;;;17.80;40.10;;;;;;5003104;28;20034;-69
2021/03/31 08:36:58;;;;;;;19.05;8.98;;;18.00;38.90;;;;;;5012907;28;20018;-69
2021/03/31 08:39:25;;;;;;;13.27;7.82;;;18.30;39.10;;;;;;5005867;28;20026;-69
2021/03/31 08:41:52;;;;;;;16.77;8.88;;;18.20;37.90;;;;;;5004190;28;20034;-69
2021/03/31 08:44:25;;;;;;;19.40;8.70;;;18.60;38.30;;;;;;4999684;28;20034;-69
2021/03/31 08:46:52;;;;;;;14.93;7.82;;;18.50;36.00;;;;;;5003825;28;20037;-69
2021/03/31 08:49:28;;;;;;;16.02;7.90;;;18.60;37.00;;;;;;5005447;28;20032;-68
2021/03/31 08:51:57;;;;;;;15.93;8.70;;;18.90;35.10;;;;;;5007358;28;20026;-69
2021/03/31 08:54:36;;;;;;;19.48;8.68;;;18.90;34.50;;;;;;5003649;28;20510;-69
2021/03/31 08:57:07;;;;;;;18.95;8.93;;;18.60;35.50;;;;;;5007400;28;20069;-68
2021/03/31 08:59:35;;;;;;;18.00;8.73;;;18.60;35.00;;;;;;5004455;28;20390;-68
2021/03/31 09:02:02;;;;;;;14.73;8.60;;;19.30;35.40;;;;;;5005798;28;20041;-69
2021/03/31 09:04:28;;;;;;;17.27;8.60;;;19.10;34.40;;;;;;5001400;28;20655;-68
2021/03/31 09:06:55;;;;;;;15.57;8.88;;;19.00;33.20;;;;;;5009658;28;20088;-69
2021/03/31 09:09:21;;;;;;;19.60;8.52;;;19.10;34.20;;;;;;5010165;28;20037;-69
2021/03/31 09:11:47;;;;;;;15.90;8.43;;;18.90;34.20;;;;;;5010772;28;20026;-69
2021/03/31 09:14:25;;;;;;;20.83;9.52;;;19.40;34.60;;;;;;5004282;28;20033;-69
2021/03/31 09:16:59;;;;;;;20.45;8.40;;;19.20;36.20;;;;;;5005913;28;20037;-70
2021/03/31 09:19:28;;;;;;;17.33;8.82;;;19.50;36.30;;;;;;5007204;28;20018;-69
2021/03/31 09:21:54;;;;;;;16.73;8.38;;;19.60;35.70;;;;;;5008092;28;20046;-68
2021/03/31 09:24:23;;;;;;;14.05;7.57;;;19.80;35.80;;;;;;5005819;28;20041;-67
2021/03/31 09:27:04;;;;;;;16.90;8.70;;;20.10;36.80;;;;;;5007899;28;20037;-69
2021/03/31 09:29:30;;;;;;;14.80;7.72;;;20.20;35.90;;;;;;5008683;28;20394;-68
2021/03/31 09:31:58;;;;;;;16.50;8.50;;;20.40;35.50;;;;;;5009971;28;20049;-68
2021/03/31 09:34:24;;;;;;;13.52;7.72;;;20.50;33.00;;;;;;5007703;28;20433;-68
2021/03/31 09:37:12;;;;;;;17.45;8.27;;;20.30;33.70;;;;;;5009010;28;20097;-67
2021/03/31 09:39:54;;;;;;;17.33;8.07;;;20.20;33.00;;;;;;4998083;28;20030;-68
2021/03/31 09:42:24;;;;;;;17.02;8.15;;;20.20;33.90;;;;;;5003581;28;20112;-68
2021/03/31 09:44:51;;;;;;;14.95;8.30;;;20.40;33.50;;;;;;5007702;28;20030;-68
2021/03/31 09:47:19;;;;;;;17.33;8.52;;;20.70;34.20;;;;;;5009706;28;20084;-68
2021/03/31 09:49:47;;;;;;;16.02;8.13;;;20.70;31.30;;;;;;5004286;28;20461;-68
2021/03/31 09:52:13;;;;;;;14.65;7.78;;;20.60;30.20;;;;;;5007861;28;20073;-68
2021/03/31 09:54:47;;;;;;;14.45;7.40;;;20.70;31.60;;;;;;5006533;28;20053;-68
2021/03/31 09:57:16;;;;;;;14.45;7.97;;;20.40;31.30;;;;;;5002569;28;20040;-68
2021/03/31 09:59:42;;;;;;;14.60;7.55;;;20.60;32.10;;;;;;5008431;28;20044;-68
2021/03/31 10:02:12;;;;;;;17.27;8.88;;;20.40;31.00;;;;;;5016074;28;20030;-69
2021/03/31 10:04:40;;;;;;;16.42;8.65;;;20.60;31.20;;;;;;5008515;28;20030;-69
2021/03/31 10:07:26;;;;;;;12.27;7.82;;;20.70;30.70;;;;;;5007474;28;20036;-68
2021/03/31 10:09:52;;;;;;;16.27;8.27;;;20.50;30.70;;;;;;5007762;28;20045;-69
2021/03/31 10:12:25;;;;;;;14.57;7.68;;;20.50;31.50;;;;;;5005438;28;20022;-68
2021/03/31 10:14:53;;;;;;;16.38;8.10;;;20.90;32.10;;;;;;4995003;28;20091;-68
2021/03/31 10:17:20;;;;;;;16.65;8.23;;;21.30;32.80;;;;;;4991831;28;20209;-68
2021/03/31 10:19:47;;;;;;;13.93;7.50;;;21.40;32.00;;;;;;4986448;28;20030;-68
2021/03/31 10:22:14;;;;;;;16.05;8.15;;;21.70;31.60;;;;;;4986317;28;20045;-67
2021/03/31 10:24:42;;;;;;;18.20;9.10;;;21.50;31.60;;;;;;4988494;28;20030;-69
2021/03/31 10:27:10;;;;;;;14.15;8.40;;;21.60;32.30;;;;;;5005654;28;20034;-68
2021/03/31 10:29:43;;;;;;;14.65;7.85;;;21.50;32.10;;;;;;5006013;28;20069;-67
2021/03/31 10:32:08;;;;;;;19.52;9.18;;;21.40;31.70;;;;;;5003018;28;20088;-68
2021/03/31 10:34:42;;;;;;;15.40;8.68;;;21.20;32.00;;;;;;4990467;28;20023;-68
2021/03/31 10:53:44;;;;;;;17.60;9.55;;;22.50;32.30;;;;;;5007404;28;20026;-68
2021/03/31 10:56:11;;;;;;;16.38;8.32;;;22.30;32.10;;;;;;5006764;28;20022;-68
2021/03/31 10:58:37;;;;;;;18.08;9.00;;;22.70;32.30;;;;;;5004085;28;20042;-68
2021/03/31 11:01:03;;;;;;;17.90;9.57;;;22.70;30.40;;;;;;5006513;28;20145;-69
2021/03/31 11:03:29;;;;;;;18.15;9.80;;;22.90;30.60;;;;;;5007851;28;20387;-68
2021/03/31 11:05:55;;;;;;;20.75;9.93;;;22.70;31.00;;;;;;5007524;28;20033;-68
2021/03/31 11:08:22;;;;;;;18.92;9.95;;;22.90;32.10;;;;;;5007372;28;20034;-68
2021/03/31 11:10:48;;;;;;;17.52;9.07;;;22.60;30.20;;;;;;5006217;28;20375;-69
2021/03/31 11:13:14;;;;;;;15.15;9.55;;;22.90;30.70;;;;;;5006549;28;20553;-69
2021/03/31 11:15:40;;;;;;;20.63;10.13;;;23.00;30.60;;;;;;5004901;28;20033;-69
2021/03/31 11:25:50;;;;;;;17.40;10.48;;;24.00;29.20;;;;;;5011546;28;20290;-69
2021/03/31 11:28:19;;;;;;;17.05;10.48;;;23.90;30.30;;;;;;5003558;28;20655;-69
2021/03/31 11:30:45;;;;;;;17.90;10.98;;;23.90;30.90;;;;;;5002416;28;20042;-68
2021/03/31 11:33:11;;;;;;;17.33;10.65;;;23.90;28.90;;;;;;5007292;28;20026;-69
2021/03/31 11:35:37;;;;;;;20.00;11.43;;;23.80;29.10;;;;;;5001782;28;20034;-69
2021/03/31 11:38:03;;;;;;;15.60;10.25;;;23.80;29.40;;;;;;5005865;28;20028;-69
2021/03/31 11:40:29;;;;;;;19.42;11.63;;;24.00;28.20;;;;;;5003037;28;20112;-70
2021/03/31 11:42:55;;;;;;;19.10;11.27;;;24.00;28.10;;;;;;5005297;28;20057;-68
2021/03/31 11:45:21;;;;;;;18.92;11.20;;;23.90;29.40;;;;;;5001822;28;20054;-69
2021/03/31 11:47:46;;;;;;;20.98;11.10;;;24.30;28.30;;;;;;5007507;28;20097;-69
2021/03/31 11:50:12;;;;;;;19.20;11.32;;;24.70;28.60;;;;;;4989789;28;20430;-69
2021/03/31 11:52:38;;;;;;;17.88;11.38;;;24.50;27.60;;;;;;5004198;28;20053;-69
2021/03/31 11:55:05;;;;;;;23.30;11.77;;;24.50;27.40;;;;;;5006062;28;20037;-69
2021/03/31 11:57:30;;;;;;;18.98;11.43;;;24.70;27.00;;;;;;5005310;28;20518;-69
2021/03/31 11:59:56;;;;;;;20.38;12.30;;;24.80;27.90;;;;;;5003352;28;20060;-68
2021/03/31 12:02:22;;;;;;;21.88;11.90;;;24.90;26.80;;;;;;4988431;28;20026;-68
2021/03/31 12:04:49;;;;;;;18.70;11.07;;;25.20;26.40;;;;;;5003524;28;20041;-69
2021/03/31 12:07:15;;;;;;;21.33;11.73;;;25.30;25.90;;;;;;4999274;28;20025;-70
2021/03/31 12:09:41;;;;;;;17.35;10.63;;;25.80;27.00;;;;;;5002861;28;20037;-68
2021/03/31 12:12:12;;;;;;;16.52;10.02;;;25.60;26.60;;;;;;5001913;28;20026;-68
2021/03/31 12:14:41;;;;;;;16.27;10.68;;;25.50;26.10;;;;;;5001827;28;20101;-69
2021/03/31 12:17:08;;;;;;;18.30;10.52;;;25.20;26.40;;;;;;5005830;28;20105;-68
2021/03/31 12:19:34;;;;;;;18.00;10.15;;;25.40;25.30;;;;;;5000523;28;20041;-68
2021/03/31 12:22:00;;;;;;;20.33;10.23;;;25.80;26.30;;;;;;5003718;28;20450;-69
2021/03/31 12:24:26;;;;;;;25.15;10.65;;;26.00;25.50;;;;;;5004107;28;20373;-68
2021/03/31 12:26:59;;;;;;;17.92;9.55;;;26.10;25.60;;;;;;4999892;28;20113;-68
2021/03/31 12:29:24;;;;;;;18.83;9.48;;;26.00;24.40;;;;;;4998566;28;20040;-68
2021/03/31 12:31:50;;;;;;;17.23;9.65;;;25.90;26.00;;;;;;5000214;28;20033;-68
2021/03/31 12:34:16;;;;;;;15.73;10.30;;;25.80;25.10;;;;;;5004539;28;20022;-69
2021/03/31 12:36:41;;;;;;;16.67;9.65;;;26.10;25.10;;;;;;5003166;28;20422;-68
2021/03/31 12:39:07;;;;;;;16.90;10.25;;;26.20;25.00;;;;;;5002087;28;20073;-68
2021/03/31 12:41:34;;;;;;;18.63;11.35;;;26.60;24.60;;;;;;5007268;28;20434;-68
2021/03/31 12:44:00;;;;;;;19.33;9.85;;;26.60;25.00;;;;;;5008109;28;20680;-68
2021/03/31 12:46:26;;;;;;;16.38;9.63;;;26.80;24.60;;;;;;5008229;28;20164;-69
2021/03/31 12:48:52;;;;;;;13.60;8.93;;;26.70;23.00;;;;;;5005155;28;20571;-67
2021/03/31 12:51:29;;;;;;;15.65;8.40;;;26.60;24.10;;;;;;5005610;28;20040;-69
2021/03/31 12:54:04;;;;;;;17.42;9.23;;;27.30;24.40;;;;;;5005644;28;20036;-69
2021/03/31 12:56:30;;;;;;;15.35;9.07;;;26.90;22.10;;;;;;5004153;28;20026;-68
2021/03/31 12:58:55;;;;;;;14.85;9.38;;;26.60;22.70;;;;;;5006012;28;20045;-69
2021/03/31 13:01:24;;;;;;;18.25;9.13;;;26.90;23.20;;;;;;5003610;28;20397;-68
2021/03/31 13:03:51;;;;;;;14.43;8.50;;;27.40;23.70;;;;;;5005292;28;20033;-69
2021/03/31 13:06:18;;;;;;;13.00;8.25;;;28.00;22.40;;;;;;5000158;28;20029;-69
2021/03/31 13:08:46;;;;;;;13.63;8.68;;;27.90;21.40;;;;;;5006836;28;20311;-69